sensor_id;sensor_type;location;lat;lon;timestamp;P1;durP1;ratioP1;P2;durP2;ratioP2
30613;SDS011;17381;51.690;5.270;2023-04-03T00:17:33;3.65;;;1.52;;
30613;SDS011;17381;51.690;5.270;2023-04-03T00:20:41;5.75;;;2.10;;
30613;SDS011;17381;51.690;5.270;2023-04-03T00:26:05;5.53;;;2.05;;
30613;SDS011;17381;51.690;5.270;2023-04-03T00:28:43;5.65;;;2.00;;
30613;SDS011;17381;51.690;5.270;2023-04-03T00:31:21;3.22;;;1.70;;
30613;SDS011;17381;51.690;5.270;2023-04-03T00:34:08;3.85;;;1.67;;
30613;SDS011;17381;51.690;5.270;2023-04-03T00:36:49;5.97;;;2.05;;
30613;SDS011;17381;51.690;5.270;2023-04-03T00:39:27;5.68;;;1.80;;
30613;SDS011;17381;51.690;5.270;2023-04-03T01:07:31;6.22;;;2.70;;
30613;SDS011;17381;51.690;5.270;2023-04-03T01:10:07;6.47;;;2.33;;
30613;SDS011;17381;51.690;5.270;2023-04-03T01:12:50;5.32;;;2.03;;
30613;SDS011;17381;51.690;5.270;2023-04-03T01:15:54;7.38;;;2.15;;
30613;SDS011;17381;51.690;5.270;2023-04-03T01:19:15;3.95;;;1.77;;
30613;SDS011;17381;51.690;5.270;2023-04-03T01:31:57;4.00;;;2.10;;
30613;SDS011;17381;51.690;5.270;2023-04-03T01:49:32;4.55;;;2.00;;
30613;SDS011;17381;51.690;5.270;2023-04-03T01:52:25;5.68;;;2.63;;
30613;SDS011;17381;51.690;5.270;2023-04-03T01:55:18;6.13;;;1.83;;
30613;SDS011;17381;51.690;5.270;2023-04-03T01:58:12;5.15;;;1.83;;
30613;SDS011;17381;51.690;5.270;2023-04-03T02:00:51;4.07;;;1.90;;
30613;SDS011;17381;51.690;5.270;2023-04-03T02:03:34;7.43;;;2.10;;
30613;SDS011;17381;51.690;5.270;2023-04-03T02:06:15;5.85;;;1.92;;
30613;SDS011;17381;51.690;5.270;2023-04-03T02:08:59;5.47;;;2.00;;
30613;SDS011;17381;51.690;5.270;2023-04-03T02:11:51;6.90;;;2.10;;
30613;SDS011;17381;51.690;5.270;2023-04-03T02:14:32;4.47;;;2.00;;
30613;SDS011;17381;51.690;5.270;2023-04-03T02:31:39;4.07;;;2.10;;
30613;SDS011;17381;51.690;5.270;2023-04-03T02:38:15;4.88;;;1.67;;
30613;SDS011;17381;51.690;5.270;2023-04-03T02:40:51;4.70;;;1.70;;
30613;SDS011;17381;51.690;5.270;2023-04-03T02:44:09;4.20;;;2.00;;
30613;SDS011;17381;51.690;5.270;2023-04-03T02:46:49;5.90;;;2.25;;
30613;SDS011;17381;51.690;5.270;2023-04-03T02:49:38;4.13;;;2.05;;
30613;SDS011;17381;51.690;5.270;2023-04-03T02:52:42;4.63;;;2.10;;
30613;SDS011;17381;51.690;5.270;2023-04-03T02:55:43;4.32;;;1.70;;
30613;SDS011;17381;51.690;5.270;2023-04-03T03:06:49;5.40;;;2.03;;
30613;SDS011;17381;51.690;5.270;2023-04-03T03:14:13;5.40;;;2.13;;
30613;SDS011;17381;51.690;5.270;2023-04-03T03:16:56;3.75;;;2.00;;
30613;SDS011;17381;51.690;5.270;2023-04-03T03:19:41;6.75;;;2.28;;
30613;SDS011;17381;51.690;5.270;2023-04-03T03:22:50;6.18;;;2.72;;
30613;SDS011;17381;51.690;5.270;2023-04-03T03:26:25;4.60;;;2.00;;
30613;SDS011;17381;51.690;5.270;2023-04-03T03:29:14;6.70;;;2.40;;
30613;SDS011;17381;51.690;5.270;2023-04-03T03:32:25;6.22;;;2.17;;
30613;SDS011;17381;51.690;5.270;2023-04-03T03:53:12;5.63;;;2.35;;
30613;SDS011;17381;51.690;5.270;2023-04-03T03:55:56;5.93;;;1.90;;
30613;SDS011;17381;51.690;5.270;2023-04-03T03:58:38;4.10;;;2.10;;
30613;SDS011;17381;51.690;5.270;2023-04-03T04:01:25;5.97;;;2.90;;
30613;SDS011;17381;51.690;5.270;2023-04-03T04:04:20;7.65;;;2.60;;
30613;SDS011;17381;51.690;5.270;2023-04-03T04:07:01;10.15;;;2.92;;
30613;SDS011;17381;51.690;5.270;2023-04-03T04:09:55;3.78;;;2.00;;
30613;SDS011;17381;51.690;5.270;2023-04-03T04:12:39;4.75;;;1.98;;
30613;SDS011;17381;51.690;5.270;2023-04-03T04:15:14;3.88;;;1.75;;
30613;SDS011;17381;51.690;5.270;2023-04-03T04:29:34;4.40;;;1.90;;
30613;SDS011;17381;51.690;5.270;2023-04-03T04:33:10;12.50;;;2.75;;
30613;SDS011;17381;51.690;5.270;2023-04-03T04:42:08;6.30;;;2.80;;
30613;SDS011;17381;51.690;5.270;2023-04-03T04:44:58;8.02;;;2.22;;
30613;SDS011;17381;51.690;5.270;2023-04-03T04:47:25;5.45;;;2.40;;
30613;SDS011;17381;51.690;5.270;2023-04-03T04:50:13;5.38;;;2.30;;
30613;SDS011;17381;51.690;5.270;2023-04-03T04:52:51;7.72;;;2.45;;
30613;SDS011;17381;51.690;5.270;2023-04-03T04:55:33;6.10;;;2.00;;
30613;SDS011;17381;51.690;5.270;2023-04-03T05:04:53;5.60;;;2.42;;
30613;SDS011;17381;51.690;5.270;2023-04-03T05:07:52;7.00;;;2.42;;
30613;SDS011;17381;51.690;5.270;2023-04-03T05:20:53;5.93;;;2.63;;
30613;SDS011;17381;51.690;5.270;2023-04-03T05:24:46;7.28;;;2.40;;
30613;SDS011;17381;51.690;5.270;2023-04-03T05:27:54;7.10;;;2.67;;
30613;SDS011;17381;51.690;5.270;2023-04-03T05:31:01;5.95;;;2.40;;
30613;SDS011;17381;51.690;5.270;2023-04-03T05:34:00;5.65;;;2.67;;
30613;SDS011;17381;51.690;5.270;2023-04-03T05:44:42;6.85;;;2.20;;
30613;SDS011;17381;51.690;5.270;2023-04-03T05:50:31;6.78;;;3.05;;
30613;SDS011;17381;51.690;5.270;2023-04-03T05:54:08;8.68;;;2.33;;
30613;SDS011;17381;51.690;5.270;2023-04-03T05:57:03;7.40;;;2.30;;
30613;SDS011;17381;51.690;5.270;2023-04-03T06:00:26;8.90;;;2.55;;
30613;SDS011;17381;51.690;5.270;2023-04-03T06:06:58;8.48;;;2.70;;
30613;SDS011;17381;51.690;5.270;2023-04-03T06:09:26;6.80;;;2.47;;
30613;SDS011;17381;51.690;5.270;2023-04-03T06:15:46;6.50;;;2.58;;
30613;SDS011;17381;51.690;5.270;2023-04-03T06:22:39;8.02;;;2.20;;
30613;SDS011;17381;51.690;5.270;2023-04-03T06:29:39;4.97;;;2.08;;
30613;SDS011;17381;51.690;5.270;2023-04-03T06:37:19;5.97;;;2.25;;
30613;SDS011;17381;51.690;5.270;2023-04-03T06:40:15;6.40;;;2.10;;
30613;SDS011;17381;51.690;5.270;2023-04-03T06:44:07;7.15;;;1.70;;
30613;SDS011;17381;51.690;5.270;2023-04-03T06:47:30;6.28;;;2.05;;
30613;SDS011;17381;51.690;5.270;2023-04-03T06:50:27;4.38;;;1.73;;
30613;SDS011;17381;51.690;5.270;2023-04-03T06:53:45;6.72;;;1.90;;
30613;SDS011;17381;51.690;5.270;2023-04-03T06:56:24;3.75;;;1.92;;
30613;SDS011;17381;51.690;5.270;2023-04-03T06:59:34;4.18;;;1.95;;
30613;SDS011;17381;51.690;5.270;2023-04-03T07:05:32;4.00;;;1.75;;
30613;SDS011;17381;51.690;5.270;2023-04-03T07:09:03;10.52;;;2.28;;
30613;SDS011;17381;51.690;5.270;2023-04-03T07:12:18;7.22;;;1.92;;
30613;SDS011;17381;51.690;5.270;2023-04-03T07:23:18;8.40;;;2.13;;
30613;SDS011;17381;51.690;5.270;2023-04-03T07:30:38;8.30;;;2.40;;
30613;SDS011;17381;51.690;5.270;2023-04-03T08:05:26;8.23;;;1.70;;
30613;SDS011;17381;51.690;5.270;2023-04-03T08:08:12;6.95;;;1.63;;
30613;SDS011;17381;51.690;5.270;2023-04-03T08:21:41;7.35;;;1.85;;
30613;SDS011;17381;51.690;5.270;2023-04-03T08:24:37;4.55;;;1.60;;
30613;SDS011;17381;51.690;5.270;2023-04-03T08:27:21;7.35;;;1.83;;
30613;SDS011;17381;51.690;5.270;2023-04-03T08:29:47;4.43;;;1.75;;
30613;SDS011;17381;51.690;5.270;2023-04-03T08:32:17;6.22;;;1.27;;
30613;SDS011;17381;51.690;5.270;2023-04-03T08:34:47;7.20;;;1.90;;
30613;SDS011;17381;51.690;5.270;2023-04-03T08:37:18;5.32;;;1.20;;
30613;SDS011;17381;51.690;5.270;2023-04-03T08:39:51;6.18;;;1.63;;
30613;SDS011;17381;51.690;5.270;2023-04-03T08:45:20;6.93;;;1.45;;
30613;SDS011;17381;51.690;5.270;2023-04-03T08:48:36;4.20;;;1.30;;
30613;SDS011;17381;51.690;5.270;2023-04-03T08:51:18;2.90;;;0.82;;
30613;SDS011;17381;51.690;5.270;2023-04-03T08:56:33;3.40;;;1.10;;
30613;SDS011;17381;51.690;5.270;2023-04-03T08:59:05;3.55;;;0.95;;
30613;SDS011;17381;51.690;5.270;2023-04-03T09:01:43;5.15;;;1.13;;
30613;SDS011;17381;51.690;5.270;2023-04-03T09:04:38;3.22;;;1.08;;
30613;SDS011;17381;51.690;5.270;2023-04-03T09:07:07;3.72;;;0.80;;
30613;SDS011;17381;51.690;5.270;2023-04-03T09:09:49;3.95;;;0.80;;
30613;SDS011;17381;51.690;5.270;2023-04-03T09:12:23;3.08;;;0.75;;
30613;SDS011;17381;51.690;5.270;2023-04-03T09:17:41;3.38;;;0.70;;
30613;SDS011;17381;51.690;5.270;2023-04-03T09:20:21;1.27;;;0.57;;
30613;SDS011;17381;51.690;5.270;2023-04-03T09:26:23;2.47;;;0.70;;
30613;SDS011;17381;51.690;5.270;2023-04-03T09:29:12;1.35;;;0.60;;
30613;SDS011;17381;51.690;5.270;2023-04-03T09:31:50;3.15;;;0.70;;
30613;SDS011;17381;51.690;5.270;2023-04-03T09:34:29;2.65;;;0.65;;
30613;SDS011;17381;51.690;5.270;2023-04-03T09:37:07;2.60;;;0.80;;
30613;SDS011;17381;51.690;5.270;2023-04-03T09:39:56;2.35;;;0.60;;
30613;SDS011;17381;51.690;5.270;2023-04-03T09:42:22;2.70;;;0.60;;
30613;SDS011;17381;51.690;5.270;2023-04-03T09:45:01;3.28;;;0.70;;
30613;SDS011;17381;51.690;5.270;2023-04-03T09:48:35;2.22;;;0.70;;
30613;SDS011;17381;51.690;5.270;2023-04-03T09:59:07;1.75;;;0.43;;
30613;SDS011;17381;51.690;5.270;2023-04-03T10:02:00;3.33;;;0.50;;
30613;SDS011;17381;51.690;5.270;2023-04-03T10:05:23;1.63;;;0.47;;
30613;SDS011;17381;51.690;5.270;2023-04-03T10:08:22;1.90;;;0.60;;
30613;SDS011;17381;51.690;5.270;2023-04-03T10:11:08;1.60;;;0.70;;
30613;SDS011;17381;51.690;5.270;2023-04-03T10:14:00;3.38;;;0.80;;
30613;SDS011;17381;51.690;5.270;2023-04-03T10:19:58;2.70;;;0.80;;
30613;SDS011;17381;51.690;5.270;2023-04-03T10:22:16;2.03;;;0.70;;
30613;SDS011;17381;51.690;5.270;2023-04-03T10:28:09;2.03;;;0.60;;
30613;SDS011;17381;51.690;5.270;2023-04-03T10:30:55;2.75;;;0.55;;
30613;SDS011;17381;51.690;5.270;2023-04-03T10:45:30;1.98;;;0.73;;
30613;SDS011;17381;51.690;5.270;2023-04-03T10:51:34;2.30;;;0.45;;
30613;SDS011;17381;51.690;5.270;2023-04-03T10:57:42;1.75;;;0.68;;
30613;SDS011;17381;51.690;5.270;2023-04-03T11:00:41;4.40;;;0.55;;
30613;SDS011;17381;51.690;5.270;2023-04-03T11:04:13;2.20;;;0.47;;
30613;SDS011;17381;51.690;5.270;2023-04-03T11:06:19;2.05;;;0.50;;
30613;SDS011;17381;51.690;5.270;2023-04-03T11:11:37;2.10;;;0.57;;
30613;SDS011;17381;51.690;5.270;2023-04-03T11:14:31;2.78;;;0.45;;
30613;SDS011;17381;51.690;5.270;2023-04-03T11:20:18;3.15;;;0.43;;
30613;SDS011;17381;51.690;5.270;2023-04-03T11:23:04;1.40;;;0.47;;
30613;SDS011;17381;51.690;5.270;2023-04-03T11:25:54;1.38;;;0.50;;
30613;SDS011;17381;51.690;5.270;2023-04-03T11:28:38;1.65;;;0.45;;
30613;SDS011;17381;51.690;5.270;2023-04-03T11:33:58;2.22;;;0.55;;
30613;SDS011;17381;51.690;5.270;2023-04-03T11:40:04;2.42;;;0.40;;
30613;SDS011;17381;51.690;5.270;2023-04-03T11:42:49;1.05;;;0.30;;
30613;SDS011;17381;51.690;5.270;2023-04-03T11:45:35;1.75;;;0.60;;
30613;SDS011;17381;51.690;5.270;2023-04-03T11:51:45;1.98;;;0.50;;
30613;SDS011;17381;51.690;5.270;2023-04-03T11:57:30;3.33;;;0.60;;
30613;SDS011;17381;51.690;5.270;2023-04-03T12:06:41;1.70;;;0.60;;
30613;SDS011;17381;51.690;5.270;2023-04-03T12:09:10;3.35;;;0.60;;
30613;SDS011;17381;51.690;5.270;2023-04-03T12:11:49;1.40;;;0.45;;
30613;SDS011;17381;51.690;5.270;2023-04-03T12:14:22;2.10;;;0.57;;
30613;SDS011;17381;51.690;5.270;2023-04-03T12:16:55;2.63;;;0.47;;
30613;SDS011;17381;51.690;5.270;2023-04-03T12:22:15;1.60;;;0.45;;
30613;SDS011;17381;51.690;5.270;2023-04-03T12:24:52;3.15;;;0.77;;
30613;SDS011;17381;51.690;5.270;2023-04-03T12:29:56;1.50;;;0.57;;
30613;SDS011;17381;51.690;5.270;2023-04-03T12:32:40;2.60;;;0.50;;
30613;SDS011;17381;51.690;5.270;2023-04-03T12:46:49;1.92;;;0.68;;
30613;SDS011;17381;51.690;5.270;2023-04-03T12:49:42;3.78;;;0.80;;
30613;SDS011;17381;51.690;5.270;2023-04-03T12:52:37;5.05;;;1.08;;
30613;SDS011;17381;51.690;5.270;2023-04-03T12:55:18;3.50;;;0.93;;
30613;SDS011;17381;51.690;5.270;2023-04-03T12:57:47;2.40;;;0.80;;
30613;SDS011;17381;51.690;5.270;2023-04-03T13:03:04;2.63;;;0.80;;
30613;SDS011;17381;51.690;5.270;2023-04-03T13:05:33;2.25;;;0.60;;
30613;SDS011;17381;51.690;5.270;2023-04-03T13:08:09;5.07;;;0.90;;
30613;SDS011;17381;51.690;5.270;2023-04-03T13:10:49;2.70;;;0.75;;
30613;SDS011;17381;51.690;5.270;2023-04-03T13:16:37;1.45;;;0.70;;
30613;SDS011;17381;51.690;5.270;2023-04-03T13:19:32;2.72;;;0.90;;
30613;SDS011;17381;51.690;5.270;2023-04-03T13:25:29;2.45;;;0.90;;
30613;SDS011;17381;51.690;5.270;2023-04-03T13:28:15;4.32;;;1.10;;
30613;SDS011;17381;51.690;5.270;2023-04-03T13:30:54;3.08;;;0.90;;
30613;SDS011;17381;51.690;5.270;2023-04-03T13:33:35;3.92;;;0.85;;
30613;SDS011;17381;51.690;5.270;2023-04-03T13:36:20;3.65;;;1.08;;
30613;SDS011;17381;51.690;5.270;2023-04-03T13:41:53;4.35;;;0.95;;
30613;SDS011;17381;51.690;5.270;2023-04-03T13:47:19;3.67;;;0.88;;
30613;SDS011;17381;51.690;5.270;2023-04-03T13:50:25;3.80;;;1.10;;
30613;SDS011;17381;51.690;5.270;2023-04-03T13:56:37;6.30;;;0.95;;
30613;SDS011;17381;51.690;5.270;2023-04-03T14:07:28;3.10;;;1.00;;
30613;SDS011;17381;51.690;5.270;2023-04-03T14:10:08;4.40;;;1.23;;
30613;SDS011;17381;51.690;5.270;2023-04-03T14:12:43;3.03;;;1.13;;
30613;SDS011;17381;51.690;5.270;2023-04-03T14:15:23;3.30;;;1.00;;
30613;SDS011;17381;51.690;5.270;2023-04-03T14:18:00;2.55;;;0.93;;
30613;SDS011;17381;51.690;5.270;2023-04-03T14:20:40;2.50;;;0.93;;
30613;SDS011;17381;51.690;5.270;2023-04-03T14:23:21;7.10;;;1.65;;
30613;SDS011;17381;51.690;5.270;2023-04-03T14:25:53;2.58;;;0.95;;
30613;SDS011;17381;51.690;5.270;2023-04-03T14:28:23;3.67;;;0.95;;
30613;SDS011;17381;51.690;5.270;2023-04-03T14:31:05;4.15;;;1.17;;
30613;SDS011;17381;51.690;5.270;2023-04-03T14:33:41;7.63;;;1.38;;
30613;SDS011;17381;51.690;5.270;2023-04-03T14:36:11;4.45;;;1.25;;
30613;SDS011;17381;51.690;5.270;2023-04-03T14:38:45;3.33;;;1.00;;
30613;SDS011;17381;51.690;5.270;2023-04-03T14:45:22;9.00;;;1.40;;
30613;SDS011;17381;51.690;5.270;2023-04-03T14:48:16;4.07;;;1.20;;
30613;SDS011;17381;51.690;5.270;2023-04-03T14:50:59;3.22;;;1.10;;
30613;SDS011;17381;51.690;5.270;2023-04-03T14:53:34;3.40;;;0.95;;
30613;SDS011;17381;51.690;5.270;2023-04-03T14:56:10;10.15;;;1.50;;
30613;SDS011;17381;51.690;5.270;2023-04-03T14:58:59;10.02;;;1.80;;
30613;SDS011;17381;51.690;5.270;2023-04-03T15:01:35;4.57;;;1.17;;
30613;SDS011;17381;51.690;5.270;2023-04-03T15:04:13;4.15;;;1.38;;
30613;SDS011;17381;51.690;5.270;2023-04-03T15:06:44;4.55;;;1.50;;
30613;SDS011;17381;51.690;5.270;2023-04-03T15:09:34;8.25;;;1.58;;
30613;SDS011;17381;51.690;5.270;2023-04-03T15:12:00;6.13;;;1.23;;
30613;SDS011;17381;51.690;5.270;2023-04-03T15:14:33;5.50;;;1.08;;
30613;SDS011;17381;51.690;5.270;2023-04-03T15:17:00;2.80;;;0.90;;
30613;SDS011;17381;51.690;5.270;2023-04-03T15:19:40;3.10;;;1.08;;
30613;SDS011;17381;51.690;5.270;2023-04-03T15:22:18;3.03;;;1.15;;
30613;SDS011;17381;51.690;5.270;2023-04-03T15:24:45;5.88;;;1.10;;
30613;SDS011;17381;51.690;5.270;2023-04-03T15:27:14;13.07;;;1.20;;
30613;SDS011;17381;51.690;5.270;2023-04-03T15:29:47;7.10;;;1.20;;
30613;SDS011;17381;51.690;5.270;2023-04-03T15:32:25;2.17;;;0.80;;
30613;SDS011;17381;51.690;5.270;2023-04-03T15:35:28;4.85;;;0.90;;
30613;SDS011;17381;51.690;5.270;2023-04-03T15:38:04;4.60;;;1.27;;
30613;SDS011;17381;51.690;5.270;2023-04-03T15:40:38;3.10;;;0.80;;
30613;SDS011;17381;51.690;5.270;2023-04-03T15:43:17;3.47;;;1.08;;
30613;SDS011;17381;51.690;5.270;2023-04-03T15:45:54;3.90;;;1.23;;
30613;SDS011;17381;51.690;5.270;2023-04-03T15:48:25;2.85;;;1.10;;
30613;SDS011;17381;51.690;5.270;2023-04-03T15:51:02;4.03;;;0.93;;
30613;SDS011;17381;51.690;5.270;2023-04-03T15:53:42;2.60;;;0.85;;
30613;SDS011;17381;51.690;5.270;2023-04-03T15:56:25;5.10;;;0.95;;
30613;SDS011;17381;51.690;5.270;2023-04-03T15:58:57;3.72;;;1.00;;
30613;SDS011;17381;51.690;5.270;2023-04-03T16:01:32;15.80;;;2.63;;
30613;SDS011;17381;51.690;5.270;2023-04-03T16:04:08;4.70;;;1.20;;
30613;SDS011;17381;51.690;5.270;2023-04-03T16:06:45;8.88;;;1.63;;
30613;SDS011;17381;51.690;5.270;2023-04-03T16:09:18;5.20;;;1.45;;
30613;SDS011;17381;51.690;5.270;2023-04-03T16:11:44;3.72;;;1.27;;
30613;SDS011;17381;51.690;5.270;2023-04-03T16:14:13;3.03;;;0.95;;
30613;SDS011;17381;51.690;5.270;2023-04-03T16:16:38;5.50;;;1.48;;
30613;SDS011;17381;51.690;5.270;2023-04-03T16:19:10;3.58;;;1.27;;
30613;SDS011;17381;51.690;5.270;2023-04-03T16:21:42;3.25;;;1.30;;
30613;SDS011;17381;51.690;5.270;2023-04-03T16:24:24;3.63;;;1.20;;
30613;SDS011;17381;51.690;5.270;2023-04-03T16:26:49;5.32;;;1.55;;
30613;SDS011;17381;51.690;5.270;2023-04-03T16:29:23;3.35;;;1.23;;
30613;SDS011;17381;51.690;5.270;2023-04-03T16:31:50;6.57;;;1.20;;
30613;SDS011;17381;51.690;5.270;2023-04-03T16:34:19;6.03;;;1.45;;
30613;SDS011;17381;51.690;5.270;2023-04-03T16:36:53;4.30;;;1.60;;
30613;SDS011;17381;51.690;5.270;2023-04-03T16:39:23;3.17;;;1.17;;
30613;SDS011;17381;51.690;5.270;2023-04-03T16:41:54;4.68;;;1.70;;
30613;SDS011;17381;51.690;5.270;2023-04-03T16:44:26;7.07;;;1.92;;
30613;SDS011;17381;51.690;5.270;2023-04-03T16:46:52;4.22;;;1.38;;
30613;SDS011;17381;51.690;5.270;2023-04-03T16:49:21;4.10;;;1.40;;
30613;SDS011;17381;51.690;5.270;2023-04-03T16:51:58;3.38;;;1.42;;
30613;SDS011;17381;51.690;5.270;2023-04-03T16:54:31;4.60;;;1.30;;
30613;SDS011;17381;51.690;5.270;2023-04-03T16:57:00;3.38;;;1.30;;
30613;SDS011;17381;51.690;5.270;2023-04-03T16:59:29;5.80;;;1.10;;
30613;SDS011;17381;51.690;5.270;2023-04-03T17:02:06;4.55;;;1.48;;
30613;SDS011;17381;51.690;5.270;2023-04-03T17:04:44;3.60;;;1.45;;
30613;SDS011;17381;51.690;5.270;2023-04-03T17:07:34;3.20;;;1.40;;
30613;SDS011;17381;51.690;5.270;2023-04-03T17:13:59;9.02;;;1.20;;
30613;SDS011;17381;51.690;5.270;2023-04-03T17:16:26;4.95;;;1.35;;
30613;SDS011;17381;51.690;5.270;2023-04-03T17:18:58;4.97;;;1.02;;
30613;SDS011;17381;51.690;5.270;2023-04-03T17:21:25;5.45;;;1.58;;
30613;SDS011;17381;51.690;5.270;2023-04-03T17:23:58;3.50;;;1.38;;
30613;SDS011;17381;51.690;5.270;2023-04-03T17:27:01;3.45;;;1.20;;
30613;SDS011;17381;51.690;5.270;2023-04-03T17:29:33;4.60;;;1.60;;
30613;SDS011;17381;51.690;5.270;2023-04-03T17:32:02;5.65;;;1.17;;
30613;SDS011;17381;51.690;5.270;2023-04-03T17:34:30;3.17;;;1.10;;
30613;SDS011;17381;51.690;5.270;2023-04-03T17:37:07;5.75;;;1.30;;
30613;SDS011;17381;51.690;5.270;2023-04-03T17:39:39;3.55;;;1.30;;
30613;SDS011;17381;51.690;5.270;2023-04-03T17:42:12;5.13;;;1.27;;
30613;SDS011;17381;51.690;5.270;2023-04-03T17:44:52;5.15;;;1.50;;
30613;SDS011;17381;51.690;5.270;2023-04-03T17:47:31;4.57;;;1.08;;
30613;SDS011;17381;51.690;5.270;2023-04-03T17:49:59;3.90;;;1.30;;
30613;SDS011;17381;51.690;5.270;2023-04-03T17:52:30;4.35;;;1.40;;
30613;SDS011;17381;51.690;5.270;2023-04-03T17:54:59;5.75;;;1.48;;
30613;SDS011;17381;51.690;5.270;2023-04-03T17:57:30;5.57;;;1.42;;
30613;SDS011;17381;51.690;5.270;2023-04-03T18:00:05;5.13;;;1.27;;
30613;SDS011;17381;51.690;5.270;2023-04-03T18:02:37;2.97;;;1.15;;
30613;SDS011;17381;51.690;5.270;2023-04-03T18:05:04;5.95;;;1.23;;
30613;SDS011;17381;51.690;5.270;2023-04-03T18:07:39;5.43;;;1.33;;
30613;SDS011;17381;51.690;5.270;2023-04-03T18:10:11;2.33;;;1.20;;
30613;SDS011;17381;51.690;5.270;2023-04-03T18:12:38;8.68;;;1.60;;
30613;SDS011;17381;51.690;5.270;2023-04-03T18:15:07;5.93;;;1.67;;
30613;SDS011;17381;51.690;5.270;2023-04-03T18:17:38;7.22;;;1.48;;
30613;SDS011;17381;51.690;5.270;2023-04-03T18:20:17;6.28;;;1.35;;
30613;SDS011;17381;51.690;5.270;2023-04-03T18:22:49;5.80;;;1.23;;
30613;SDS011;17381;51.690;5.270;2023-04-03T18:25:27;3.90;;;1.25;;
30613;SDS011;17381;51.690;5.270;2023-04-03T18:28:03;7.85;;;1.48;;
30613;SDS011;17381;51.690;5.270;2023-04-03T18:30:32;4.50;;;1.25;;
30613;SDS011;17381;51.690;5.270;2023-04-03T18:33:08;4.20;;;1.30;;
30613;SDS011;17381;51.690;5.270;2023-04-03T18:35:38;4.50;;;1.20;;
30613;SDS011;17381;51.690;5.270;2023-04-03T18:38:16;4.45;;;1.27;;
30613;SDS011;17381;51.690;5.270;2023-04-03T18:40:45;4.22;;;1.58;;
30613;SDS011;17381;51.690;5.270;2023-04-03T18:43:21;4.05;;;1.23;;
30613;SDS011;17381;51.690;5.270;2023-04-03T18:45:54;4.03;;;1.08;;
30613;SDS011;17381;51.690;5.270;2023-04-03T18:48:27;4.75;;;1.48;;
30613;SDS011;17381;51.690;5.270;2023-04-03T18:51:05;4.90;;;1.10;;
30613;SDS011;17381;51.690;5.270;2023-04-03T18:53:40;4.47;;;1.38;;
30613;SDS011;17381;51.690;5.270;2023-04-03T18:56:15;5.28;;;1.10;;
30613;SDS011;17381;51.690;5.270;2023-04-03T18:58:47;7.28;;;2.00;;
30613;SDS011;17381;51.690;5.270;2023-04-03T19:01:22;6.32;;;1.45;;
30613;SDS011;17381;51.690;5.270;2023-04-03T19:03:51;6.03;;;1.75;;
30613;SDS011;17381;51.690;5.270;2023-04-03T19:06:26;4.43;;;1.30;;
30613;SDS011;17381;51.690;5.270;2023-04-03T19:09:04;4.20;;;1.50;;
30613;SDS011;17381;51.690;5.270;2023-04-03T19:11:40;5.10;;;1.80;;
30613;SDS011;17381;51.690;5.270;2023-04-03T19:14:12;4.43;;;1.20;;
30613;SDS011;17381;51.690;5.270;2023-04-03T19:16:38;4.57;;;1.85;;
30613;SDS011;17381;51.690;5.270;2023-04-03T19:19:08;6.65;;;1.38;;
30613;SDS011;17381;51.690;5.270;2023-04-03T19:21:40;4.90;;;1.40;;
30613;SDS011;17381;51.690;5.270;2023-04-03T19:24:12;6.53;;;1.40;;
30613;SDS011;17381;51.690;5.270;2023-04-03T19:26:45;2.97;;;1.25;;
30613;SDS011;17381;51.690;5.270;2023-04-03T19:29:11;4.82;;;1.45;;
30613;SDS011;17381;51.690;5.270;2023-04-03T19:31:46;4.72;;;1.40;;
30613;SDS011;17381;51.690;5.270;2023-04-03T19:34:16;4.82;;;1.55;;
30613;SDS011;17381;51.690;5.270;2023-04-03T19:36:41;8.40;;;1.70;;
30613;SDS011;17381;51.690;5.270;2023-04-03T19:39:17;4.82;;;1.55;;
30613;SDS011;17381;51.690;5.270;2023-04-03T19:41:44;4.50;;;1.55;;
30613;SDS011;17381;51.690;5.270;2023-04-03T19:44:19;6.65;;;1.52;;
30613;SDS011;17381;51.690;5.270;2023-04-03T19:46:45;4.35;;;1.58;;
30613;SDS011;17381;51.690;5.270;2023-04-03T19:49:15;5.05;;;1.60;;
30613;SDS011;17381;51.690;5.270;2023-04-03T19:51:42;4.60;;;1.40;;
30613;SDS011;17381;51.690;5.270;2023-04-03T19:54:11;2.60;;;1.08;;
30613;SDS011;17381;51.690;5.270;2023-04-03T19:56:43;4.03;;;1.30;;
30613;SDS011;17381;51.690;5.270;2023-04-03T19:59:15;3.40;;;1.50;;
30613;SDS011;17381;51.690;5.270;2023-04-03T20:01:44;5.15;;;1.73;;
30613;SDS011;17381;51.690;5.270;2023-04-03T20:04:11;5.03;;;1.30;;
30613;SDS011;17381;51.690;5.270;2023-04-03T20:06:43;4.00;;;1.50;;
30613;SDS011;17381;51.690;5.270;2023-04-03T20:09:15;5.07;;;1.40;;
30613;SDS011;17381;51.690;5.270;2023-04-03T20:11:42;4.20;;;1.17;;
30613;SDS011;17381;51.690;5.270;2023-04-03T20:14:14;4.35;;;1.80;;
30613;SDS011;17381;51.690;5.270;2023-04-03T20:16:46;4.13;;;1.60;;
30613;SDS011;17381;51.690;5.270;2023-04-03T20:19:16;6.85;;;1.88;;
30613;SDS011;17381;51.690;5.270;2023-04-03T20:21:48;5.32;;;1.52;;
30613;SDS011;17381;51.690;5.270;2023-04-03T20:24:22;3.60;;;1.30;;
30613;SDS011;17381;51.690;5.270;2023-04-03T20:26:56;3.83;;;1.35;;
30613;SDS011;17381;51.690;5.270;2023-04-03T20:29:28;5.18;;;1.77;;
30613;SDS011;17381;51.690;5.270;2023-04-03T20:32:19;3.53;;;1.30;;
30613;SDS011;17381;51.690;5.270;2023-04-03T20:34:52;5.65;;;1.65;;
30613;SDS011;17381;51.690;5.270;2023-04-03T20:37:33;6.45;;;1.50;;
30613;SDS011;17381;51.690;5.270;2023-04-03T20:41:10;5.63;;;1.40;;
30613;SDS011;17381;51.690;5.270;2023-04-03T20:44:19;3.28;;;1.33;;
30613;SDS011;17381;51.690;5.270;2023-04-03T20:47:13;8.73;;;2.03;;
30613;SDS011;17381;51.690;5.270;2023-04-03T20:50:11;7.20;;;1.55;;
30613;SDS011;17381;51.690;5.270;2023-04-03T20:53:15;5.22;;;1.48;;
30613;SDS011;17381;51.690;5.270;2023-04-03T20:56:02;5.03;;;1.50;;
30613;SDS011;17381;51.690;5.270;2023-04-03T20:58:41;3.90;;;1.40;;
30613;SDS011;17381;51.690;5.270;2023-04-03T21:01:25;2.78;;;1.38;;
30613;SDS011;17381;51.690;5.270;2023-04-03T21:04:15;4.00;;;1.20;;
30613;SDS011;17381;51.690;5.270;2023-04-03T21:19:30;4.65;;;1.50;;
30613;SDS011;17381;51.690;5.270;2023-04-03T21:22:19;4.43;;;2.03;;
30613;SDS011;17381;51.690;5.270;2023-04-03T21:25:03;4.30;;;1.50;;
30613;SDS011;17381;51.690;5.270;2023-04-03T21:27:46;3.67;;;1.30;;
30613;SDS011;17381;51.690;5.270;2023-04-03T21:30:14;3.58;;;1.23;;
30613;SDS011;17381;51.690;5.270;2023-04-03T21:32:48;4.70;;;1.30;;
30613;SDS011;17381;51.690;5.270;2023-04-03T21:35:22;6.30;;;1.52;;
30613;SDS011;17381;51.690;5.270;2023-04-03T21:37:52;4.88;;;1.60;;
30613;SDS011;17381;51.690;5.270;2023-04-03T21:40:31;3.35;;;1.58;;
30613;SDS011;17381;51.690;5.270;2023-04-03T21:43:47;5.13;;;1.58;;
30613;SDS011;17381;51.690;5.270;2023-04-03T21:46:22;4.88;;;1.63;;
30613;SDS011;17381;51.690;5.270;2023-04-03T21:49:00;3.17;;;1.38;;
30613;SDS011;17381;51.690;5.270;2023-04-03T21:51:50;5.18;;;1.60;;
30613;SDS011;17381;51.690;5.270;2023-04-03T21:54:42;6.50;;;2.25;;
30613;SDS011;17381;51.690;5.270;2023-04-03T21:57:15;3.60;;;1.35;;
30613;SDS011;17381;51.690;5.270;2023-04-03T21:59:59;3.70;;;1.45;;
30613;SDS011;17381;51.690;5.270;2023-04-03T22:02:54;5.50;;;1.80;;
30613;SDS011;17381;51.690;5.270;2023-04-03T22:05:35;7.55;;;1.88;;
30613;SDS011;17381;51.690;5.270;2023-04-03T22:08:19;2.47;;;1.20;;
30613;SDS011;17381;51.690;5.270;2023-04-03T22:11:05;4.82;;;1.50;;
30613;SDS011;17381;51.690;5.270;2023-04-03T22:13:46;3.47;;;1.33;;
30613;SDS011;17381;51.690;5.270;2023-04-03T22:16:38;5.15;;;1.50;;
30613;SDS011;17381;51.690;5.270;2023-04-03T22:19:18;3.90;;;1.80;;
30613;SDS011;17381;51.690;5.270;2023-04-03T22:21:58;4.75;;;1.50;;
30613;SDS011;17381;51.690;5.270;2023-04-03T22:24:39;5.10;;;1.60;;
30613;SDS011;17381;51.690;5.270;2023-04-03T22:27:23;7.13;;;2.30;;
30613;SDS011;17381;51.690;5.270;2023-04-03T22:30:14;5.75;;;2.15;;
30613;SDS011;17381;51.690;5.270;2023-04-03T22:33:16;4.80;;;2.10;;